createdAt,value
2022-12-23T00:01:29.196Z,102554.91
2022-12-23T00:04:00.759Z,102553.50
2022-12-23T00:06:28.741Z,102548.72
2022-12-23T00:08:59.357Z,102552.84
2022-12-23T00:11:28.795Z,102558.72
2022-12-23T00:14:21.488Z,102550.50
2022-12-23T00:16:51.551Z,102546.72
2022-12-23T00:19:19.578Z,102553.94
2022-12-23T00:21:50.120Z,102550.81
2022-12-23T00:24:17.932Z,102548.59
2022-12-23T00:26:45.682Z,102547.19
2022-12-23T00:29:14.724Z,102549.47
2022-12-23T00:31:42.556Z,102548.44
2022-12-23T00:34:10.622Z,102546.88
2022-12-23T00:36:39.500Z,102537.81
2022-12-23T00:39:26.184Z,102537.66
2022-12-23T00:42:13.325Z,102551.91
2022-12-23T00:44:42.451Z,102542.97
2022-12-23T00:47:31.263Z,102530.91
2022-12-23T00:50:01.023Z,102560.13
2022-12-23T00:52:28.750Z,102546.34
2022-12-23T00:54:56.256Z,102532.63
2022-12-23T00:57:27.283Z,102536.09
2022-12-23T00:59:55.146Z,102536.94
2022-12-23T01:02:42.578Z,102542.59
2022-12-23T01:05:31.200Z,102534.72
2022-12-23T01:08:00.024Z,102536.59
2022-12-23T01:10:27.631Z,102533.31
2022-12-23T01:12:57.039Z,102532.13
2022-12-23T01:15:26.128Z,102522.66
2022-12-23T01:17:56.221Z,102514.03
2022-12-23T01:20:24.314Z,102519.22
2022-12-23T01:22:52.137Z,102512.00
2022-12-23T01:25:19.860Z,102510.44
2022-12-23T01:27:47.374Z,102502.38
2022-12-23T01:30:18.414Z,102500.19
2022-12-23T01:32:45.972Z,102495.88
2022-12-23T01:35:13.641Z,102482.19
2022-12-23T01:37:41.846Z,102477.53
2022-12-23T01:40:10.434Z,102475.28
2022-12-23T01:42:47.754Z,102470.16
2022-12-23T01:45:29.500Z,102481.78
2022-12-23T01:48:20.555Z,102477.84
2022-12-23T01:51:01.539Z,102466.97
2022-12-23T01:54:19.825Z,102476.91
2022-12-23T01:56:47.942Z,102466.97
2022-12-23T01:59:36.854Z,102465.22
2022-12-23T02:02:23.020Z,102447.38
2022-12-23T02:04:51.621Z,102448.22
2022-12-23T02:07:38.269Z,102443.09
2022-12-23T02:10:09.257Z,102454.56
2022-12-23T02:12:48.921Z,102456.94
2022-12-23T02:15:54.817Z,102457.09
2022-12-23T02:18:41.326Z,102435.56
2022-12-23T02:21:18.495Z,102467.34
2022-12-23T02:23:59.490Z,102480.88
2022-12-23T02:26:48.764Z,102493.56
2022-12-23T02:29:28.323Z,102495.13
2022-12-23T02:32:15.787Z,102496.69
2022-12-23T02:35:39.015Z,102501.84
2022-12-23T02:38:30.238Z,102492.91
2022-12-23T02:41:12.111Z,102493.34
2022-12-23T02:43:48.762Z,102507.25
2022-12-23T02:46:26.185Z,102493.41
2022-12-23T02:49:00.503Z,102490.81
2022-12-23T02:51:31.564Z,102484.16
2022-12-23T02:54:02.925Z,102503.19
2022-12-23T02:56:32.619Z,102502.34
2022-12-23T02:59:17.366Z,102512.63
2022-12-23T03:01:46.354Z,102511.94
2022-12-23T03:04:15.271Z,102502.03
2022-12-23T03:06:47.201Z,102508.88
2022-12-23T03:09:45.463Z,102474.84
2022-12-23T03:12:33.832Z,102486.59
2022-12-23T03:15:43.635Z,102488.63
2022-12-23T03:18:33.371Z,102493.97
2022-12-23T03:21:11.077Z,102479.03
2022-12-23T03:23:41.948Z,102471.03
2022-12-23T03:26:17.592Z,102479.97
2022-12-23T03:29:24.621Z,102469.03
2022-12-23T03:31:53.722Z,102473.00
2022-12-23T03:34:23.971Z,102471.44
2022-12-23T03:36:54.652Z,102467.53
2022-12-23T03:39:25.953Z,102462.91
2022-12-23T03:41:55.985Z,102465.47
2022-12-23T03:44:32.118Z,102470.28
2022-12-23T03:47:20.272Z,102470.63
2022-12-23T03:49:52.815Z,102476.53
2022-12-23T03:53:03.995Z,102467.47
2022-12-23T03:55:38.215Z,102467.31
2022-12-23T03:58:35.269Z,102451.72
2022-12-23T04:01:21.901Z,102459.81
2022-12-23T04:04:30.603Z,102459.97
2022-12-23T04:07:01.090Z,102459.97
2022-12-23T04:09:30.088Z,102462.16
2022-12-23T04:12:00.703Z,102452.34
2022-12-23T04:14:28.243Z,102448.59
2022-12-23T04:16:58.914Z,102453.53
2022-12-23T04:19:29.527Z,102444.94
2022-12-23T04:22:02.396Z,102451.28
2022-12-23T04:24:32.735Z,102450.41
2022-12-23T04:27:01.922Z,102443.22
2022-12-23T04:29:30.977Z,102430.13
2022-12-23T04:32:08.085Z,102444.19
2022-12-23T04:34:35.439Z,102444.50
2022-12-23T04:37:03.251Z,102447.94
2022-12-23T04:39:31.087Z,102444.84
2022-12-23T04:41:58.739Z,102454.63
2022-12-23T04:44:29.437Z,102455.47
2022-12-23T04:46:57.650Z,102454.47
2022-12-23T04:49:26.749Z,102445.53
2022-12-23T04:51:55.832Z,102447.56
2022-12-23T04:54:24.520Z,102452.72
2022-12-23T04:56:52.429Z,102440.06
2022-12-23T04:59:20.041Z,102439.03
2022-12-23T05:01:50.345Z,102420.31
2022-12-23T05:04:18.310Z,102432.38
2022-12-23T05:06:49.361Z,102424.84
2022-12-23T05:09:17.109Z,102403.56
2022-12-23T05:11:44.883Z,102404.28
2022-12-23T05:14:13.829Z,102420.88
2022-12-23T05:16:41.414Z,102430.44
2022-12-23T05:19:09.292Z,102425.31
2022-12-23T05:21:38.167Z,102431.59
2022-12-23T05:24:06.262Z,102440.34
2022-12-23T05:26:33.802Z,102437.75
2022-12-23T05:29:01.358Z,102447.84
2022-12-23T05:31:30.262Z,102457.63
2022-12-23T05:34:04.091Z,102447.31
2022-12-23T05:36:33.767Z,102458.09
2022-12-23T05:39:01.295Z,102457.72
2022-12-23T05:41:28.845Z,102454.97
2022-12-23T05:43:56.788Z,102459.75
2022-12-23T05:46:26.821Z,102463.50
2022-12-23T05:48:56.627Z,102467.22
2022-12-23T05:51:26.162Z,102456.00
2022-12-23T05:53:56.161Z,102457.41
2022-12-23T05:56:23.584Z,102460.84
2022-12-23T05:58:52.286Z,102469.78
2022-12-23T06:01:20.229Z,102468.03
2022-12-23T06:03:47.956Z,102475.25
2022-12-23T06:06:15.964Z,102484.72
2022-12-23T06:08:43.509Z,102468.59
2022-12-23T06:11:13.929Z,102472.56
2022-12-23T06:13:41.705Z,102481.16
2022-12-23T06:16:09.639Z,102470.19
2022-12-23T06:18:38.177Z,102472.63
2022-12-23T06:21:07.345Z,102467.78
2022-12-23T06:23:35.096Z,102473.00
2022-12-23T06:26:03.386Z,102465.25
2022-12-23T06:28:31.348Z,102470.09
2022-12-23T06:30:59.420Z,102458.06
2022-12-23T06:33:26.947Z,102471.28
2022-12-23T06:35:54.569Z,102482.25
2022-12-23T06:38:22.499Z,102478.16
2022-12-23T06:40:50.329Z,102467.53
2022-12-23T06:43:20.712Z,102456.41
2022-12-23T06:45:48.685Z,102451.97
2022-12-23T06:48:16.782Z,102459.56
2022-12-23T06:50:44.794Z,102448.91
2022-12-23T06:53:13.586Z,102453.22
2022-12-23T06:55:42.545Z,102448.44
2022-12-23T06:58:11.600Z,102454.59
2022-12-23T07:00:41.557Z,102457.34
2022-12-23T07:03:10.320Z,102447.72
2022-12-23T07:05:38.000Z,102455.41
2022-12-23T07:08:07.641Z,102462.13
2022-12-23T07:10:35.305Z,102460.78
2022-12-23T07:13:04.379Z,102461.81
2022-12-23T07:15:33.860Z,102464.25
2022-12-23T07:18:01.570Z,102470.94
2022-12-23T07:20:29.386Z,102480.00
2022-12-23T07:22:57.987Z,102474.38
2022-12-23T07:25:25.928Z,102476.94
2022-12-23T07:27:55.580Z,102464.91
2022-12-23T07:30:23.752Z,102476.63
2022-12-23T07:32:52.085Z,102487.13
2022-12-23T07:35:19.934Z,102466.63
2022-12-23T07:37:52.786Z,102469.19
2022-12-23T07:40:25.503Z,102493.41
2022-12-23T07:42:59.442Z,102482.44
2022-12-23T07:45:28.090Z,102475.06
2022-12-23T07:47:58.048Z,102481.78
2022-12-23T07:50:27.453Z,102487.66
2022-12-23T07:52:56.930Z,102482.16
2022-12-23T07:55:24.804Z,102478.56
2022-12-23T07:57:53.823Z,102484.22
2022-12-23T08:00:22.252Z,102487.34
2022-12-23T08:02:52.974Z,102477.94
2022-12-23T08:05:23.134Z,102480.34
2022-12-23T08:07:52.047Z,102490.31
2022-12-23T08:10:19.803Z,102503.56
2022-12-23T08:12:47.963Z,102507.84
2022-12-23T08:15:18.906Z,102512.00
2022-12-23T08:17:47.971Z,102502.19
2022-12-23T08:20:15.994Z,102522.81
2022-12-23T08:22:43.528Z,102527.28
2022-12-23T08:25:26.022Z,102535.19
2022-12-23T08:27:54.871Z,102533.84
2022-12-23T08:30:22.473Z,102529.00
2022-12-23T08:32:50.212Z,102543.44
2022-12-23T08:35:18.124Z,102542.94
2022-12-23T08:37:47.949Z,102550.56
2022-12-23T08:40:15.782Z,102552.13
2022-12-23T08:42:45.288Z,102539.09
2022-12-23T08:45:13.495Z,102542.69
2022-12-23T08:47:41.069Z,102548.38
2022-12-23T08:50:13.436Z,102545.31
2022-12-23T08:52:43.281Z,102559.19
2022-12-23T08:55:11.061Z,102563.34
2022-12-23T08:57:41.386Z,102559.94
2022-12-23T09:00:12.257Z,102559.44
2022-12-23T09:02:40.017Z,102557.34
2022-12-23T09:05:08.053Z,102564.56
2022-12-23T09:07:40.639Z,102546.19
2022-12-23T09:10:09.041Z,102555.97
2022-12-23T09:12:40.698Z,102558.75
2022-12-23T09:15:09.348Z,102558.59
2022-12-23T09:17:37.488Z,102545.34
2022-12-23T09:20:05.778Z,102529.88
2022-12-23T09:22:36.595Z,102518.66
2022-12-23T09:25:12.051Z,102510.25
2022-12-23T09:27:42.543Z,102521.25
2022-12-23T09:30:16.143Z,102530.19
2022-12-23T09:32:44.205Z,102527.81
2022-12-23T09:35:11.804Z,102534.66
2022-12-23T09:37:39.757Z,102536.03
2022-12-23T09:40:08.067Z,102543.41
2022-12-23T09:43:15.305Z,102541.47
2022-12-23T09:46:21.735Z,102547.66
2022-12-23T09:49:17.898Z,102554.16
2022-12-23T09:51:45.988Z,102549.84
2022-12-23T09:54:27.320Z,102553.06
2022-12-23T09:57:30.829Z,102546.66
2022-12-23T10:00:39.969Z,102561.94
2022-12-23T10:03:42.994Z,102567.41
2022-12-23T10:06:28.291Z,102584.19
2022-12-23T10:08:59.997Z,102576.25
2022-12-23T10:11:39.238Z,102575.88
2022-12-23T10:14:32.813Z,102570.88
2022-12-23T10:17:03.527Z,102580.34
2022-12-23T10:19:52.462Z,102575.81
2022-12-23T10:22:22.871Z,102571.28
2022-12-23T10:24:52.537Z,102567.25
2022-12-23T10:27:47.384Z,102571.50
2022-12-23T10:33:51.850Z,102570.91
2022-12-23T10:36:41.652Z,102570.16
2022-12-23T10:39:45.754Z,102567.78
2022-12-23T10:42:51.650Z,102565.81
2022-12-23T10:45:38.228Z,102551.72
2022-12-23T10:48:42.665Z,102560.66
2022-12-23T10:51:29.517Z,102558.84
2022-12-23T10:54:19.581Z,102545.13
2022-12-23T10:56:55.212Z,102532.44
2022-12-23T10:59:35.163Z,102528.09
2022-12-23T11:02:58.909Z,102536.91
2022-12-23T11:05:47.868Z,102538.53
2022-12-23T11:08:15.583Z,102527.34
2022-12-23T11:10:43.608Z,102524.88
2022-12-23T11:13:37.209Z,102535.41
2022-12-23T11:16:29.021Z,102526.72
2022-12-23T11:19:16.888Z,102520.16
2022-12-23T11:21:56.287Z,102510.41
2022-12-23T11:24:27.569Z,102509.38
2022-12-23T11:27:07.070Z,102505.69
2022-12-23T11:30:10.597Z,102501.59
2022-12-23T11:32:38.304Z,102485.44
2022-12-23T11:35:06.489Z,102481.69
2022-12-23T11:37:45.814Z,102474.34
2022-12-23T11:40:29.809Z,102472.09
2022-12-23T11:43:05.292Z,102459.00
2022-12-23T11:45:42.465Z,102453.09
2022-12-23T11:48:29.937Z,102452.34
2022-12-23T11:51:02.087Z,102447.25
2022-12-23T12:05:32.533Z,102437.88
2022-12-23T12:08:14.800Z,102433.41
2022-12-23T12:18:20.746Z,102418.94
2022-12-23T12:20:57.288Z,102421.91
2022-12-23T12:27:13.812Z,102417.22
2022-12-23T12:29:49.211Z,102418.50
2022-12-23T12:32:45.179Z,102412.97
2022-12-23T12:35:19.138Z,102398.06
2022-12-23T12:37:51.271Z,102413.00
2022-12-23T12:40:31.810Z,102401.09
2022-12-23T12:43:04.533Z,102401.13
2022-12-23T12:45:39.740Z,102397.06
2022-12-23T12:48:40.274Z,102394.50
2022-12-23T12:51:32.377Z,102383.44
2022-12-23T12:54:32.403Z,102378.53
2022-12-23T12:57:13.948Z,102371.28
2022-12-23T12:59:42.624Z,102369.59
2022-12-23T13:02:16.194Z,102363.84
2022-12-23T13:05:12.037Z,102358.50
2022-12-23T13:08:01.177Z,102352.94
2022-12-23T13:10:52.134Z,102344.00
2022-12-23T13:13:27.723Z,102352.94
2022-12-23T13:16:25.991Z,102343.94
2022-12-23T13:19:11.868Z,102346.25
2022-12-23T13:22:10.361Z,102340.69
2022-12-23T13:25:17.107Z,102340.28
2022-12-23T13:27:59.527Z,102330.25
2022-12-23T13:30:28.940Z,102322.16
2022-12-23T13:33:26.469Z,102316.41
2022-12-23T13:36:10.892Z,102322.63
2022-12-23T13:39:03.652Z,102302.56
2022-12-23T13:41:40.851Z,102297.25
2022-12-23T13:44:13.962Z,102292.13
2022-12-23T13:46:56.906Z,102283.19
2022-12-23T13:49:41.898Z,102287.44
2022-12-23T13:52:29.605Z,102275.94
2022-12-23T13:55:19.730Z,102287.84
2022-12-23T13:57:50.420Z,102285.94
2022-12-23T14:00:27.686Z,102292.72
2022-12-23T14:03:01.264Z,102279.09
2022-12-23T14:05:32.087Z,102279.50
2022-12-23T14:08:19.917Z,102275.88
2022-12-23T14:11:02.289Z,102285.47
2022-12-23T14:13:32.209Z,102277.53
2022-12-23T14:16:21.096Z,102290.16
2022-12-23T14:19:03.157Z,102286.75
2022-12-23T14:21:58.429Z,102280.56
2022-12-23T14:25:02.241Z,102276.72
2022-12-23T14:27:50.597Z,102278.84
2022-12-23T14:30:34.465Z,102259.47
2022-12-23T14:33:28.929Z,102271.19
2022-12-23T14:36:15.602Z,102265.44
2022-12-23T14:38:43.398Z,102268.88
2022-12-23T14:41:26.127Z,102270.97
2022-12-23T14:44:00.002Z,102269.50
2022-12-23T14:46:36.287Z,102263.75
2022-12-23T14:49:40.004Z,102270.16
2022-12-23T14:52:44.815Z,102262.94
2022-12-23T14:55:30.760Z,102260.75
2022-12-23T14:58:14.015Z,102263.94
2022-12-23T15:00:50.389Z,102264.16
2022-12-23T15:03:19.719Z,102257.50
2022-12-23T15:05:47.538Z,102261.13
2022-12-23T15:08:41.229Z,102258.06
2022-12-23T15:11:09.954Z,102267.47
2022-12-23T15:13:37.396Z,102265.75
2022-12-23T15:16:08.669Z,102269.56
2022-12-23T15:18:37.861Z,102271.66
2022-12-23T15:21:19.506Z,102262.69
2022-12-23T15:23:51.391Z,102262.75
2022-12-23T15:26:30.915Z,102266.16
2022-12-23T15:29:00.079Z,102262.38
2022-12-23T15:31:29.643Z,102278.41
2022-12-23T15:34:03.739Z,102263.69
2022-12-23T15:36:37.521Z,102251.56
2022-12-23T15:39:11.282Z,102265.00
2022-12-23T15:41:43.915Z,102269.91
2022-12-23T15:44:20.491Z,102268.44
2022-12-23T15:46:50.950Z,102264.16
2022-12-23T15:49:22.904Z,102268.88
2022-12-23T15:52:18.119Z,102278.47
2022-12-23T15:55:34.747Z,102266.97
2022-12-23T15:58:04.157Z,102280.00
2022-12-23T16:00:41.963Z,102266.72
2022-12-23T16:03:33.428Z,102268.47
2022-12-23T16:06:21.609Z,102280.00
2022-12-23T16:09:24.392Z,102277.41
2022-12-23T16:12:21.912Z,102279.97
2022-12-23T16:15:01.132Z,102268.25
2022-12-23T16:17:36.696Z,102273.16
2022-12-23T16:20:20.971Z,102275.94
2022-12-23T16:22:52.316Z,102268.69
2022-12-23T16:25:25.890Z,102271.44
2022-12-23T16:28:09.746Z,102268.25
2022-12-23T16:30:50.342Z,102269.69
2022-12-23T16:33:58.618Z,102269.22
2022-12-23T16:36:26.769Z,102270.91
2022-12-23T16:39:13.634Z,102272.56
2022-12-23T16:41:54.863Z,102259.50
2022-12-23T16:44:59.480Z,102269.06
2022-12-23T16:47:45.078Z,102256.63
2022-12-23T16:50:18.833Z,102258.25
2022-12-23T16:53:02.573Z,102254.16
2022-12-23T16:55:51.121Z,102255.53
2022-12-23T16:58:26.441Z,102249.53
2022-12-23T17:01:22.640Z,102254.53
2022-12-23T17:04:23.057Z,102253.19
2022-12-23T17:06:55.841Z,102255.25
2022-12-23T17:09:24.313Z,102242.00
2022-12-23T17:12:27.959Z,102250.00
2022-12-23T17:15:11.973Z,102233.72
2022-12-23T17:17:54.142Z,102239.16
2022-12-23T17:20:23.631Z,102242.94
2022-12-23T17:23:25.001Z,102248.16
2022-12-23T17:26:13.272Z,102249.97
2022-12-23T17:28:58.474Z,102252.88
2022-12-23T17:31:30.078Z,102247.28
2022-12-23T17:34:20.597Z,102250.56
2022-12-23T17:36:53.481Z,102254.22
2022-12-23T17:39:28.891Z,102252.53
2022-12-23T17:41:56.562Z,102254.06
2022-12-23T17:44:24.984Z,102250.75
2022-12-23T17:46:53.410Z,102263.97
2022-12-23T17:49:21.730Z,102253.78
2022-12-23T17:51:49.502Z,102255.38
2022-12-23T17:54:25.166Z,102249.19
2022-12-23T17:56:53.664Z,102249.44
2022-12-23T17:59:21.861Z,102241.47
2022-12-23T18:01:49.625Z,102253.88
2022-12-23T18:04:17.932Z,102258.72
2022-12-23T18:06:45.849Z,102255.03
2022-12-23T18:09:15.020Z,102265.53
2022-12-23T18:11:49.966Z,102266.59
2022-12-23T18:14:19.940Z,102260.94
2022-12-23T18:16:48.100Z,102254.69
2022-12-23T18:19:19.728Z,102257.97
2022-12-23T18:21:48.861Z,102256.13
2022-12-23T18:24:18.493Z,102247.28
2022-12-23T18:26:48.584Z,102251.59
2022-12-23T18:29:18.824Z,102261.63
2022-12-23T18:31:57.596Z,102256.84
2022-12-23T18:34:25.148Z,102262.69
2022-12-23T18:36:53.457Z,102266.34
2022-12-23T18:39:25.018Z,102257.78
2022-12-23T18:41:55.396Z,102256.78
2022-12-23T18:44:23.939Z,102266.22
2022-12-23T18:46:55.180Z,102267.25
2022-12-23T18:49:37.862Z,102259.03
2022-12-23T18:52:10.267Z,102262.50
2022-12-23T18:54:58.358Z,102261.00
2022-12-23T18:57:30.376Z,102265.16
2022-12-23T19:00:01.803Z,102260.38
2022-12-23T19:02:31.285Z,102251.31
2022-12-23T19:04:59.460Z,102277.41
2022-12-23T19:07:27.895Z,102272.78
2022-12-23T19:09:58.670Z,102258.22
2022-12-23T19:13:18.619Z,102274.16
2022-12-23T19:16:33.416Z,102271.63
2022-12-23T19:19:50.904Z,102269.91
2022-12-23T19:22:18.494Z,102258.81
2022-12-23T19:25:54.350Z,102271.69
2022-12-23T19:32:32.005Z,102252.16
2022-12-23T19:35:03.323Z,102234.97
2022-12-23T19:37:59.846Z,102239.97
2022-12-23T19:40:43.909Z,102257.47
2022-12-23T19:43:39.431Z,102242.53
2022-12-23T19:46:24.000Z,102245.25
2022-12-23T19:49:20.392Z,102251.09
2022-12-23T19:52:02.200Z,102231.91
2022-12-23T19:54:46.148Z,102231.72
2022-12-23T19:58:07.950Z,102242.38
2022-12-23T20:04:26.189Z,102237.56
2022-12-23T20:06:57.501Z,102238.25
2022-12-23T20:09:25.435Z,102235.66
2022-12-23T20:11:54.091Z,102229.69
2022-12-23T20:14:27.736Z,102226.94
2022-12-23T20:16:58.063Z,102233.81
2022-12-23T20:19:26.087Z,102235.34
2022-12-23T20:21:54.332Z,102241.88
2022-12-23T20:24:22.515Z,102241.53
2022-12-23T20:26:50.584Z,102226.44
2022-12-23T20:29:18.943Z,102232.06
2022-12-23T20:31:46.986Z,102233.63
2022-12-23T20:34:38.424Z,102231.22
2022-12-23T20:37:10.547Z,102229.50
2022-12-23T20:39:38.423Z,102225.72
2022-12-23T20:42:29.700Z,102217.50
2022-12-23T20:44:57.173Z,102218.19
2022-12-23T20:47:25.868Z,102210.31
2022-12-23T20:50:02.370Z,102217.66
2022-12-23T20:52:33.729Z,102215.78
2022-12-23T20:55:02.950Z,102207.22
2022-12-23T20:57:32.707Z,102215.09
2022-12-23T21:00:00.547Z,102219.56
2022-12-23T21:02:28.398Z,102217.50
2022-12-23T21:05:02.327Z,102214.59
2022-12-23T21:07:35.890Z,102219.22
2022-12-23T21:10:04.567Z,102221.13
2022-12-23T21:12:34.410Z,102213.06
2022-12-23T21:15:02.745Z,102220.56
2022-12-23T21:17:31.646Z,102206.38
2022-12-23T21:20:07.552Z,102214.91
2022-12-23T21:22:40.768Z,102224.69
2022-12-23T21:25:11.607Z,102221.94
2022-12-23T21:27:40.135Z,102215.25
2022-12-23T21:30:13.237Z,102209.91
2022-12-23T21:32:40.724Z,102218.69
2022-12-23T21:35:09.231Z,102208.88
2022-12-23T21:37:39.937Z,102211.31
2022-12-23T21:40:08.282Z,102205.13
2022-12-23T21:42:36.213Z,102188.13
2022-12-23T21:45:09.142Z,102217.81
2022-12-23T21:47:36.634Z,102211.31
2022-12-23T21:50:04.433Z,102199.47
2022-12-23T21:52:32.984Z,102207.53
2022-12-23T21:55:00.899Z,102205.94
2022-12-23T21:57:29.977Z,102197.19
2022-12-23T21:59:58.885Z,102201.66
2022-12-23T22:02:31.595Z,102203.69
2022-12-23T22:08:47.011Z,102190.66
2022-12-23T22:11:16.599Z,102204.84
2022-12-23T22:13:49.196Z,102208.44
2022-12-23T22:16:20.794Z,102209.81
2022-12-23T22:18:50.390Z,102203.09
2022-12-23T22:21:20.706Z,102203.09
2022-12-23T22:23:49.353Z,102211.13
2022-12-23T22:26:25.214Z,102199.44
2022-12-23T22:28:56.159Z,102211.63
2022-12-23T22:31:26.820Z,102214.03
2022-12-23T22:34:00.517Z,102215.72
2022-12-23T22:36:32.329Z,102216.41
2022-12-23T22:39:03.372Z,102205.88
2022-12-23T22:41:34.094Z,102204.69
2022-12-23T22:44:01.898Z,102199.34
2022-12-23T22:46:30.897Z,102200.91
2022-12-23T22:49:01.811Z,102198.66
2022-12-23T22:51:30.820Z,102196.41
2022-12-23T22:53:59.048Z,102192.13
2022-12-23T22:56:29.480Z,102201.53
2022-12-23T22:59:01.126Z,102202.00
2022-12-23T23:01:40.339Z,102179.22
2022-12-23T23:04:09.234Z,102184.47
2022-12-23T23:06:42.506Z,102184.47
2022-12-23T23:09:13.349Z,102179.84
2022-12-23T23:11:41.212Z,102180.53
2022-12-23T23:14:55.362Z,102182.56
2022-12-23T23:20:41.939Z,102182.88
2022-12-23T23:23:16.134Z,102185.44
2022-12-23T23:25:48.737Z,102176.50
2022-12-23T23:28:17.013Z,102167.91
2022-12-23T23:30:44.671Z,102173.22
2022-12-23T23:33:14.235Z,102170.25
2022-12-23T23:35:42.072Z,102167.50
2022-12-23T23:38:10.194Z,102165.34
2022-12-23T23:40:40.297Z,102160.69
2022-12-23T23:43:08.491Z,102168.00
2022-12-23T23:45:37.621Z,102167.47
2022-12-23T23:48:06.015Z,102161.28
2022-12-23T23:50:35.867Z,102158.16
2022-12-23T23:53:07.463Z,102147.03
2022-12-23T23:55:38.451Z,102159.53
2022-12-23T23:58:07.262Z,102139.47
